Terminal Aerodrome Forecast
Issued by NWS

Home | Current Version | Previous Version | Text Only | Print | Product List | Glossary On
Versions: 1 2 3 4 5 6 7 8 9 10 11 12
000
FTUS46 KPDT 211100
TAFDLS
TAF
KDLS 211127Z 2112/2212 12004KT P6SM SCT250
     FM211800 32016G26KT P6SM SCT250
     FM212100 31020G30KT P6SM FEW050 SCT250
     FM220500 29018G26KT P6SM SCT050 SCT250=

USA.gov is the U.S. government's official web portal to all federal, state and local government web resources and services.